Terminal Aerodrome Forecast
Issued by NWS

Home | Current Version | Previous Version | Text Only | Print | Product List | Glossary On
Versions: 1 2 3 4 5 6 7 8 9 10 11 12 13 14 15 16
000
FTUS46 KOTX 231131
TAFMWH
TAF
KMWH 231131Z 2312/2412 17006KT P6SM VCSH SCT030 OVC080
     FM231500 20011KT P6SM SCT050 BKN070
     FM231900 21013G20KT P6SM VCSH BKN050
     FM240400 18010KT P6SM -RA SCT025 OVC040
     FM240700 18010KT P6SM -RA BKN025 OVC040=

USA.gov is the U.S. government's official web portal to all federal, state and local government web resources and services.